createdAt,value
2018-06-21T00:01:28.823Z,549.63
2018-06-21T00:03:56.036Z,548.40
2018-06-21T00:06:23.261Z,559.17
2018-06-21T00:08:50.513Z,550.27
2018-06-21T00:11:17.741Z,549.53
2018-06-21T00:13:44.954Z,555.30
2018-06-21T00:16:12.183Z,556.03
2018-06-21T00:18:39.420Z,553.07
2018-06-21T00:21:06.653Z,549.10
2018-06-21T00:23:33.885Z,552.60
2018-06-21T00:26:01.120Z,552.10
2018-06-21T00:28:28.360Z,547.87
2018-06-21T00:30:55.590Z,547.60
2018-06-21T00:33:22.808Z,547.67
2018-06-21T00:35:50.028Z,549.97
2018-06-21T00:38:17.242Z,553.27
2018-06-21T00:40:44.453Z,549.57
2018-06-21T00:43:11.689Z,550.33
2018-06-21T00:45:38.908Z,548.60
2018-06-21T00:48:06.128Z,541.80
2018-06-21T00:50:33.355Z,552.37
2018-06-21T00:53:00.596Z,550.13
2018-06-21T00:55:39.292Z,550.77
2018-06-21T00:58:06.577Z,546.97
2018-06-21T01:00:33.794Z,552.93
2018-06-21T01:03:01.025Z,543.93
2018-06-21T01:05:28.253Z,549.07
2018-06-21T01:07:55.483Z,545.67
2018-06-21T01:10:22.705Z,547.97
2018-06-21T01:12:49.929Z,543.67
2018-06-21T01:15:17.161Z,544.93
2018-06-21T01:17:44.390Z,544.10
2018-06-21T01:20:11.626Z,544.67
2018-06-21T01:22:38.882Z,545.10
2018-06-21T01:25:06.118Z,542.27
2018-06-21T01:27:33.340Z,538.17
2018-06-21T01:30:00.561Z,539.40
2018-06-21T01:32:27.799Z,536.97
2018-06-21T01:34:55.028Z,536.43
2018-06-21T01:37:22.244Z,539.17
2018-06-21T01:39:49.465Z,540.37
2018-06-21T01:42:16.714Z,539.07
2018-06-21T01:44:43.928Z,539.80
2018-06-21T01:47:11.156Z,535.70
2018-06-21T01:49:38.386Z,542.07
2018-06-21T01:52:05.655Z,538.13
2018-06-21T01:54:32.889Z,541.20
2018-06-21T01:57:00.101Z,542.57
2018-06-21T01:59:27.317Z,541.43
2018-06-21T02:01:54.505Z,536.57
2018-06-21T02:04:21.740Z,543.40
2018-06-21T02:06:48.946Z,539.80
2018-06-21T02:09:16.177Z,543.23
2018-06-21T02:11:43.373Z,544.07
2018-06-21T02:14:10.570Z,539.80
2018-06-21T02:16:37.776Z,537.50
2018-06-21T02:19:04.986Z,540.40
2018-06-21T02:21:32.190Z,539.27
2018-06-21T02:23:59.403Z,537.33
2018-06-21T02:26:26.645Z,534.50
2018-06-21T02:28:53.868Z,541.60
2018-06-21T02:31:21.055Z,538.97
2018-06-21T02:33:48.269Z,535.40
2018-06-21T02:36:15.471Z,539.83
2018-06-21T02:38:42.686Z,540.87
2018-06-21T02:41:09.889Z,536.23
2018-06-21T02:43:37.108Z,535.87
2018-06-21T02:46:04.541Z,538.83
2018-06-21T02:48:31.734Z,535.57
2018-06-21T02:50:58.950Z,532.07
2018-06-21T02:53:26.165Z,533.53
2018-06-21T02:55:53.378Z,536.17
2018-06-21T02:58:20.581Z,533.07
2018-06-21T03:00:47.827Z,536.70
2018-06-21T03:03:15.017Z,534.50
2018-06-21T03:05:42.259Z,536.00
2018-06-21T03:08:09.445Z,538.77
2018-06-21T03:10:36.657Z,534.23
2018-06-21T03:13:05.219Z,531.90
2018-06-21T03:15:32.426Z,539.87
2018-06-21T03:17:59.633Z,534.43
2018-06-21T03:20:26.877Z,533.03
2018-06-21T03:22:54.111Z,529.97
2018-06-21T03:25:21.368Z,534.90
2018-06-21T03:27:48.696Z,534.00
2018-06-21T03:30:21.621Z,530.93
2018-06-21T03:32:48.994Z,532.00
2018-06-21T03:35:18.672Z,531.83
2018-06-21T03:37:45.872Z,529.70
2018-06-21T03:40:13.069Z,531.97
2018-06-21T03:42:40.329Z,530.37
2018-06-21T03:45:07.553Z,532.40
2018-06-21T03:47:34.749Z,531.33
2018-06-21T03:50:01.947Z,531.50
2018-06-21T03:52:29.231Z,526.90
2018-06-21T03:54:56.440Z,527.97
2018-06-21T03:57:23.648Z,533.53
2018-06-21T03:59:50.845Z,530.60
2018-06-21T04:02:18.073Z,526.87
2018-06-21T04:04:45.283Z,526.47
2018-06-21T04:07:12.482Z,528.10
2018-06-21T04:09:39.675Z,532.33
2018-06-21T04:12:06.877Z,528.13
2018-06-21T04:14:34.059Z,528.43
2018-06-21T04:17:01.351Z,532.10
2018-06-21T04:19:28.589Z,526.83
2018-06-21T04:21:55.792Z,524.67
2018-06-21T04:24:22.985Z,526.47
2018-06-21T04:26:50.185Z,531.77
2018-06-21T04:29:17.407Z,525.30
2018-06-21T04:31:44.615Z,530.73
2018-06-21T04:34:11.853Z,529.83
2018-06-21T04:36:39.065Z,528.17
2018-06-21T04:39:06.790Z,525.97
2018-06-21T04:41:34.053Z,527.43
2018-06-21T04:44:01.259Z,526.67
2018-06-21T04:46:28.450Z,529.47
2018-06-21T04:48:55.644Z,528.57
2018-06-21T04:51:22.832Z,527.10
2018-06-21T04:53:50.026Z,525.77
2018-06-21T04:56:17.213Z,532.90
2018-06-21T04:58:44.404Z,527.93
2018-06-21T05:01:11.960Z,523.70
2018-06-21T05:03:39.154Z,528.67
2018-06-21T05:06:06.344Z,525.63
2018-06-21T05:08:33.538Z,530.00
2018-06-21T05:11:00.729Z,528.13
2018-06-21T05:13:27.944Z,531.60
2018-06-21T05:15:55.348Z,530.53
2018-06-21T05:18:22.609Z,530.20
2018-06-21T05:20:49.777Z,530.87
2018-06-21T05:23:16.997Z,533.87
2018-06-21T05:25:44.190Z,532.80
2018-06-21T05:28:11.406Z,534.13
2018-06-21T05:30:38.590Z,533.53
2018-06-21T05:33:06.072Z,539.73
2018-06-21T05:35:33.360Z,537.50
2018-06-21T05:38:00.576Z,537.47
2018-06-21T05:40:32.800Z,542.13
2018-06-21T05:43:00.892Z,539.37
2018-06-21T05:45:28.106Z,537.97
2018-06-21T05:47:55.948Z,539.57
2018-06-21T05:50:23.138Z,540.63
2018-06-21T05:52:50.462Z,541.60
2018-06-21T05:55:17.669Z,540.57
2018-06-21T05:57:44.849Z,536.57
2018-06-21T06:00:12.162Z,542.33
2018-06-21T06:02:39.720Z,543.00
2018-06-21T06:05:06.923Z,542.13
2018-06-21T06:07:34.115Z,540.60
2018-06-21T06:10:01.381Z,537.77
2018-06-21T06:12:30.732Z,543.40
2018-06-21T06:14:57.931Z,535.43
2018-06-21T06:17:25.126Z,538.17
2018-06-21T06:19:52.317Z,534.10
2018-06-21T06:22:20.498Z,543.17
2018-06-21T06:24:47.694Z,541.57
2018-06-21T06:27:14.885Z,535.50
2018-06-21T06:29:42.080Z,540.50
2018-06-21T06:32:09.264Z,540.80
2018-06-21T06:34:36.477Z,536.33
2018-06-21T06:37:03.709Z,540.17
2018-06-21T06:39:30.929Z,535.03
2018-06-21T06:41:58.121Z,539.13
2018-06-21T06:44:25.317Z,536.23
2018-06-21T06:46:52.509Z,541.87
2018-06-21T06:49:19.709Z,543.17
2018-06-21T06:51:46.918Z,544.23
2018-06-21T06:54:14.155Z,556.60
2018-06-21T06:56:41.357Z,558.17
2018-06-21T06:59:08.562Z,572.30
2018-06-21T07:01:35.757Z,575.73
2018-06-21T07:04:03.073Z,580.57
2018-06-21T07:06:30.269Z,592.43
2018-06-21T07:08:58.008Z,624.67
2018-06-21T07:11:26.105Z,647.50
2018-06-21T07:13:53.296Z,663.37
2018-06-21T07:16:20.493Z,690.83
2018-06-21T07:18:47.697Z,699.20
2018-06-21T07:21:14.897Z,739.60
2018-06-21T07:23:42.316Z,734.33
2018-06-21T07:26:09.509Z,760.80
2018-06-21T07:28:36.706Z,763.23
2018-06-21T07:31:03.912Z,779.87
2018-06-21T07:33:31.147Z,777.97
2018-06-21T07:35:58.350Z,786.07
2018-06-21T07:38:25.537Z,805.70
2018-06-21T07:40:52.726Z,796.80
2018-06-21T07:43:19.942Z,787.30
2018-06-21T07:45:47.144Z,789.80
2018-06-21T07:48:14.349Z,847.83
2018-06-21T07:50:41.548Z,829.17
2018-06-21T07:53:08.989Z,835.60
2018-06-21T07:55:36.177Z,832.90
2018-06-21T07:58:03.396Z,803.37
2018-06-21T08:00:30.589Z,818.50
2018-06-21T08:02:57.780Z,834.37
2018-06-21T08:05:25.035Z,797.70
2018-06-21T08:07:52.226Z,804.60
2018-06-21T08:10:19.420Z,801.00
2018-06-21T08:12:46.620Z,770.57
2018-06-21T08:15:13.824Z,822.80
2018-06-21T08:17:41.052Z,809.07
2018-06-21T08:20:08.305Z,780.43
2018-06-21T08:22:35.497Z,793.00
2018-06-21T08:25:02.754Z,798.30
2018-06-21T08:27:29.965Z,804.10
2018-06-21T08:29:57.166Z,823.83
2018-06-21T08:32:24.370Z,810.93
2018-06-21T08:34:51.556Z,811.17
2018-06-21T08:37:18.749Z,824.80
2018-06-21T08:39:46.444Z,864.17
2018-06-21T08:42:13.628Z,838.77
2018-06-21T08:44:40.832Z,864.17
2018-06-21T08:47:08.026Z,869.00
2018-06-21T08:49:35.252Z,862.50
2018-06-21T08:52:02.489Z,835.93
2018-06-21T08:54:29.776Z,823.87
2018-06-21T08:56:57.013Z,837.13
2018-06-21T08:59:24.222Z,819.10
2018-06-21T09:01:51.411Z,802.43
2018-06-21T09:04:18.609Z,823.47
2018-06-21T09:06:45.794Z,823.97
2018-06-21T09:09:13.008Z,811.63
2018-06-21T09:11:40.190Z,827.47
2018-06-21T09:14:07.410Z,851.87
2018-06-21T09:16:34.618Z,872.00
2018-06-21T09:19:01.814Z,824.10
2018-06-21T09:21:29.008Z,810.83
2018-06-21T09:23:56.201Z,838.10
2018-06-21T09:26:23.405Z,837.03
2018-06-21T09:28:50.601Z,854.90
2018-06-21T09:31:17.800Z,860.50
2018-06-21T09:33:44.996Z,857.77
2018-06-21T09:36:12.193Z,845.17
2018-06-21T09:38:45.145Z,827.17
2018-06-21T09:41:18.097Z,858.77
2018-06-21T09:44:03.824Z,834.80
2018-06-21T09:46:33.874Z,804.07
2018-06-21T09:48:52.050Z,797.30
2018-06-21T09:51:19.708Z,772.40
2018-06-21T09:53:46.921Z,770.63
2018-06-21T09:56:14.233Z,747.73
2018-06-21T09:58:41.421Z,703.70
2018-06-21T10:01:08.629Z,684.50
2018-06-21T10:03:35.825Z,708.30
2018-06-21T10:06:03.041Z,723.87
2018-06-21T10:08:30.233Z,695.83
2018-06-21T10:10:57.419Z,742.70
2018-06-21T10:13:24.783Z,733.60
2018-06-21T10:15:52.160Z,733.07
2018-06-21T10:18:19.389Z,720.40
2018-06-21T10:20:46.610Z,724.07
2018-06-21T10:23:13.942Z,734.00
2018-06-21T10:25:41.148Z,664.40
2018-06-21T10:28:08.334Z,668.47
2018-06-21T10:30:35.562Z,695.87
2018-06-21T10:33:02.750Z,710.37
2018-06-21T10:35:29.946Z,733.00
2018-06-21T10:37:57.137Z,726.63
2018-06-21T10:40:24.340Z,787.80
2018-06-21T10:42:51.550Z,807.97
2018-06-21T10:45:18.757Z,797.03
2018-06-21T10:47:45.971Z,832.67
2018-06-21T10:50:13.184Z,818.00
2018-06-21T10:52:40.370Z,776.37
2018-06-21T10:55:07.560Z,759.63
2018-06-21T10:57:34.771Z,769.40
2018-06-21T11:00:01.969Z,805.67
2018-06-21T11:02:29.186Z,767.40
2018-06-21T11:04:56.376Z,750.70
2018-06-21T11:07:23.570Z,748.30
2018-06-21T11:09:50.948Z,740.70
2018-06-21T11:12:18.133Z,714.00
2018-06-21T11:14:45.324Z,719.83
2018-06-21T11:17:12.534Z,716.97
2018-06-21T11:19:39.728Z,728.70
2018-06-21T11:22:06.934Z,745.63
2018-06-21T11:24:34.117Z,754.67
2018-06-21T11:27:01.301Z,755.77
2018-06-21T11:29:28.521Z,755.37
2018-06-21T11:31:55.733Z,751.43
2018-06-21T11:34:23.049Z,754.67
2018-06-21T11:36:50.234Z,748.53
2018-06-21T11:39:17.452Z,806.23
2018-06-21T11:41:44.669Z,800.83
2018-06-21T11:44:11.859Z,848.03
2018-06-21T11:46:39.125Z,824.67
2018-06-21T11:49:06.373Z,817.30
2018-06-21T11:51:33.553Z,804.67
2018-06-21T11:54:00.836Z,831.60
2018-06-21T11:56:28.022Z,834.37
2018-06-21T11:58:55.229Z,806.07
2018-06-21T12:01:22.449Z,808.83
2018-06-21T12:03:49.657Z,781.83
2018-06-21T12:06:16.852Z,808.00
2018-06-21T12:08:44.061Z,793.63
2018-06-21T12:11:11.261Z,803.53
2018-06-21T12:13:38.556Z,800.13
2018-06-21T12:16:05.759Z,773.50
2018-06-21T12:18:32.957Z,770.23
2018-06-21T12:21:00.152Z,743.80
2018-06-21T12:23:27.347Z,745.23
2018-06-21T12:25:54.543Z,665.67
2018-06-21T12:28:21.765Z,639.40
2018-06-21T12:30:48.952Z,669.97
2018-06-21T12:33:16.137Z,680.40
2018-06-21T12:35:43.429Z,659.57
2018-06-21T12:38:10.638Z,671.63
2018-06-21T12:40:37.832Z,744.03
2018-06-21T12:43:05.052Z,718.97
2018-06-21T12:45:32.241Z,730.83
2018-06-21T12:47:59.426Z,742.20
2018-06-21T12:50:26.630Z,766.47
2018-06-21T12:52:53.817Z,770.03
2018-06-21T12:55:21.079Z,789.40
2018-06-21T12:57:48.294Z,781.20
2018-06-21T13:00:15.725Z,816.40
2018-06-21T13:02:42.929Z,785.17
2018-06-21T13:05:10.157Z,844.33
2018-06-21T13:07:37.354Z,794.00
2018-06-21T13:10:16.355Z,773.63
2018-06-21T13:13:01.068Z,776.27
2018-06-21T13:15:28.290Z,757.83
2018-06-21T13:17:55.465Z,744.77
2018-06-21T13:20:22.669Z,670.17
2018-06-21T13:22:49.869Z,660.90
2018-06-21T13:25:17.078Z,653.63
2018-06-21T13:27:44.268Z,664.50
2018-06-21T13:30:11.504Z,675.07
2018-06-21T13:32:38.694Z,663.33
2018-06-21T13:35:06.366Z,680.87
2018-06-21T13:37:33.566Z,637.00
2018-06-21T13:40:00.787Z,684.87
2018-06-21T13:42:28.496Z,624.07
2018-06-21T13:44:55.692Z,638.17
2018-06-21T13:47:22.888Z,636.17
2018-06-21T13:49:50.124Z,641.13
2018-06-21T13:52:17.339Z,625.60
2018-06-21T13:54:44.562Z,649.73
2018-06-21T13:57:11.750Z,629.00
2018-06-21T13:59:38.998Z,622.03
2018-06-21T14:02:06.388Z,631.67
2018-06-21T14:04:33.577Z,607.50
2018-06-21T14:07:00.791Z,594.20
2018-06-21T14:09:27.980Z,592.40
2018-06-21T14:11:55.191Z,593.27
2018-06-21T14:14:22.716Z,590.73
2018-06-21T14:16:49.924Z,580.93
2018-06-21T14:19:17.202Z,586.90
2018-06-21T14:21:44.378Z,581.83
2018-06-21T14:24:12.704Z,592.43
2018-06-21T14:26:40.282Z,584.37
2018-06-21T14:29:07.505Z,582.37
2018-06-21T14:31:34.733Z,580.47
2018-06-21T14:34:01.913Z,584.00
2018-06-21T14:36:29.438Z,577.13
2018-06-21T14:38:56.936Z,577.53
2018-06-21T14:41:24.381Z,579.20
2018-06-21T14:43:51.574Z,567.77
2018-06-21T14:46:18.761Z,568.17
2018-06-21T14:48:46.012Z,572.50
2018-06-21T14:51:13.193Z,579.23
2018-06-21T14:53:40.395Z,576.53
2018-06-21T14:56:07.621Z,579.93
2018-06-21T14:58:34.817Z,586.87
2018-06-21T15:01:02.027Z,602.00
2018-06-21T15:03:29.357Z,604.40
2018-06-21T15:05:56.553Z,615.53
2018-06-21T15:08:23.753Z,599.67
2018-06-21T15:10:50.954Z,631.87
2018-06-21T15:13:18.150Z,627.83
2018-06-21T15:15:45.348Z,623.43
2018-06-21T15:18:12.559Z,606.97
2018-06-21T15:20:39.751Z,613.40
2018-06-21T15:23:06.982Z,642.07
2018-06-21T15:25:34.202Z,626.57
2018-06-21T15:28:01.600Z,594.40
2018-06-21T15:30:28.814Z,607.40
2018-06-21T15:32:56.018Z,591.57
2018-06-21T15:35:23.214Z,582.00
2018-06-21T15:37:50.541Z,581.87
2018-06-21T15:40:17.912Z,579.77
2018-06-21T15:42:45.109Z,582.87
2018-06-21T15:45:12.449Z,573.77
2018-06-21T15:47:39.645Z,582.03
2018-06-21T15:50:06.906Z,567.83
2018-06-21T15:52:34.097Z,577.10
2018-06-21T15:55:01.301Z,575.57
2018-06-21T15:57:28.561Z,567.70
2018-06-21T15:59:55.745Z,575.37
2018-06-21T16:02:22.945Z,573.17
2018-06-21T16:04:50.205Z,571.47
2018-06-21T16:07:17.404Z,567.43
2018-06-21T16:09:44.614Z,566.60
2018-06-21T16:12:11.824Z,573.90
2018-06-21T16:14:39.025Z,563.17
2018-06-21T16:17:06.336Z,562.63
2018-06-21T16:19:33.583Z,556.07
2018-06-21T16:22:00.941Z,554.13
2018-06-21T16:24:28.149Z,556.97
2018-06-21T16:26:55.340Z,557.30
2018-06-21T16:29:22.539Z,549.50
2018-06-21T16:31:49.746Z,552.83
2018-06-21T16:34:17.092Z,547.43
2018-06-21T16:36:44.507Z,559.77
2018-06-21T16:39:11.756Z,552.37
2018-06-21T16:41:39.359Z,551.20
2018-06-21T16:44:06.509Z,549.50
2018-06-21T16:46:33.889Z,547.23
2018-06-21T16:49:01.098Z,544.30
2018-06-21T16:51:28.683Z,543.23
2018-06-21T16:53:55.888Z,537.37
2018-06-21T16:56:23.474Z,538.93
2018-06-21T16:58:50.672Z,545.40
2018-06-21T17:01:17.941Z,550.47
2018-06-21T17:03:45.150Z,536.80
2018-06-21T17:06:12.417Z,534.90
2018-06-21T17:08:39.640Z,534.13
2018-06-21T17:11:06.892Z,534.53
2018-06-21T17:13:34.109Z,542.77
2018-06-21T17:16:01.378Z,535.03
2018-06-21T17:18:29.505Z,537.60
2018-06-21T17:20:56.705Z,535.67
2018-06-21T17:23:23.916Z,531.77
2018-06-21T17:25:51.166Z,544.23
2018-06-21T17:28:18.389Z,527.60
2018-06-21T17:30:45.735Z,528.77
2018-06-21T17:33:12.992Z,534.97
2018-06-21T17:35:40.221Z,529.37
2018-06-21T17:38:07.443Z,530.87
2018-06-21T17:40:34.739Z,540.53
2018-06-21T17:43:01.952Z,533.17
2018-06-21T17:45:29.358Z,536.47
2018-06-21T17:47:56.568Z,533.63
2018-06-21T17:50:23.801Z,534.87
2018-06-21T17:52:51.240Z,538.00
2018-06-21T17:55:18.443Z,537.70
2018-06-21T17:57:45.746Z,537.10
2018-06-21T18:00:12.976Z,534.77
2018-06-21T18:02:40.428Z,535.80
2018-06-21T18:05:07.730Z,538.50
2018-06-21T18:07:35.021Z,530.67
2018-06-21T18:10:02.342Z,530.97
2018-06-21T18:12:29.556Z,528.00
2018-06-21T18:14:56.874Z,524.23
2018-06-21T18:17:24.173Z,527.17
2018-06-21T18:19:51.444Z,532.67
2018-06-21T18:22:18.712Z,526.97
2018-06-21T18:24:45.930Z,518.43
2018-06-21T18:27:13.197Z,524.40
2018-06-21T18:29:40.600Z,520.10
2018-06-21T18:32:07.853Z,521.67
2018-06-21T18:34:35.065Z,522.20
2018-06-21T18:37:02.328Z,517.63
2018-06-21T18:39:29.585Z,513.30
2018-06-21T18:41:56.813Z,518.27
2018-06-21T18:44:24.042Z,516.13
2018-06-21T18:46:51.286Z,514.17
2018-06-21T18:49:18.506Z,511.00
2018-06-21T18:51:45.729Z,513.70
2018-06-21T18:54:12.940Z,511.10
2018-06-21T18:56:40.373Z,513.40
2018-06-21T18:59:07.609Z,507.77
2018-06-21T19:01:35.003Z,509.67
2018-06-21T19:04:02.259Z,511.70
2018-06-21T19:06:35.373Z,506.57
2018-06-21T19:09:08.476Z,508.87
2018-06-21T19:11:41.583Z,506.57
2018-06-21T19:14:08.859Z,512.87
2018-06-21T19:16:36.087Z,508.57
2018-06-21T19:19:03.307Z,510.40
2018-06-21T19:21:30.552Z,508.67
2018-06-21T19:23:57.757Z,503.90
2018-06-21T19:26:25.192Z,507.53
2018-06-21T19:28:52.410Z,509.43
2018-06-21T19:31:19.658Z,503.33
2018-06-21T19:33:46.859Z,504.23
2018-06-21T19:36:14.120Z,510.10
2018-06-21T19:38:41.325Z,502.67
2018-06-21T19:41:08.540Z,509.97
2018-06-21T19:43:35.754Z,507.10
2018-06-21T19:46:02.968Z,504.70
2018-06-21T19:48:30.172Z,504.50
2018-06-21T19:50:57.393Z,508.57
2018-06-21T19:53:24.587Z,508.30
2018-06-21T19:55:51.792Z,510.70
2018-06-21T19:58:18.998Z,503.93
2018-06-21T20:00:46.202Z,500.70
2018-06-21T20:03:13.431Z,496.30
2018-06-21T20:05:40.707Z,505.73
2018-06-21T20:08:21.629Z,497.27
2018-06-21T20:10:53.421Z,498.23
2018-06-21T20:13:20.630Z,499.50
2018-06-21T20:15:53.007Z,498.20
2018-06-21T20:18:21.147Z,499.73
2018-06-21T20:20:48.420Z,499.23
2018-06-21T20:23:16.035Z,494.20
2018-06-21T20:25:43.216Z,496.43
2018-06-21T20:28:10.570Z,500.50
2018-06-21T20:30:37.765Z,499.13
2018-06-21T20:33:05.300Z,497.97
2018-06-21T20:35:32.501Z,499.00
2018-06-21T20:37:59.697Z,491.83
2018-06-21T20:40:26.921Z,494.27
2018-06-21T20:42:54.125Z,493.87
2018-06-21T20:45:21.321Z,500.80
2018-06-21T20:47:48.528Z,500.20
2018-06-21T20:50:15.725Z,494.97
2018-06-21T20:52:42.930Z,495.23
2018-06-21T20:55:10.134Z,492.10
2018-06-21T20:57:37.422Z,498.93
2018-06-21T21:00:04.633Z,489.70
2018-06-21T21:02:31.842Z,490.63
2018-06-21T21:05:09.374Z,488.73
2018-06-21T21:07:36.631Z,481.83
2018-06-21T21:10:05.743Z,488.37
2018-06-21T21:12:32.924Z,486.10
2018-06-21T21:15:00.264Z,486.10
2018-06-21T21:17:27.473Z,482.97
2018-06-21T21:19:54.668Z,484.73
2018-06-21T21:22:21.857Z,478.47
2018-06-21T21:24:49.589Z,475.73
2018-06-21T21:27:16.795Z,483.70
2018-06-21T21:29:43.998Z,479.00
2018-06-21T21:32:11.193Z,488.23
2018-06-21T21:34:38.397Z,474.20
2018-06-21T21:37:05.593Z,473.57
2018-06-21T21:39:32.892Z,476.37
2018-06-21T21:42:00.054Z,474.00
2018-06-21T21:44:27.256Z,476.73
2018-06-21T21:46:54.457Z,472.77
2018-06-21T21:49:21.654Z,475.20
2018-06-21T21:51:48.866Z,468.83
2018-06-21T21:54:16.068Z,467.67
2018-06-21T21:56:43.266Z,471.13
2018-06-21T21:59:10.456Z,471.47
2018-06-21T22:01:37.654Z,473.67
2018-06-21T22:04:04.895Z,469.60
2018-06-21T22:06:32.081Z,468.20
2018-06-21T22:08:59.280Z,467.30
2018-06-21T22:11:26.472Z,473.50
2018-06-21T22:13:59.530Z,464.83
2018-06-21T22:16:26.723Z,467.37
2018-06-21T22:18:53.938Z,463.77
2018-06-21T22:21:21.137Z,469.83
2018-06-21T22:23:48.336Z,464.80
2018-06-21T22:26:15.543Z,459.93
2018-06-21T22:28:42.741Z,460.50
2018-06-21T22:31:09.933Z,461.27
2018-06-21T22:33:37.133Z,463.87
2018-06-21T22:36:04.436Z,462.03
2018-06-21T22:38:31.629Z,462.37
2018-06-21T22:40:58.828Z,466.20
2018-06-21T22:43:26.049Z,461.53
2018-06-21T22:45:53.253Z,457.10
2018-06-21T22:48:20.441Z,457.20
2018-06-21T22:50:47.669Z,454.57
2018-06-21T22:53:14.852Z,457.20
2018-06-21T22:55:42.049Z,454.73
2018-06-21T22:58:09.244Z,459.30
2018-06-21T23:00:36.449Z,458.83
2018-06-21T23:03:03.707Z,457.50
2018-06-21T23:05:30.956Z,456.67
2018-06-21T23:07:58.109Z,457.17
2018-06-21T23:10:25.333Z,453.47
2018-06-21T23:12:52.549Z,452.80
2018-06-21T23:15:19.766Z,452.30
2018-06-21T23:17:46.956Z,460.13
2018-06-21T23:20:14.176Z,450.87
2018-06-21T23:22:41.372Z,451.77
2018-06-21T23:25:08.575Z,449.67
2018-06-21T23:27:35.752Z,449.97
2018-06-21T23:30:03.286Z,451.67
2018-06-21T23:32:30.508Z,446.40
2018-06-21T23:34:57.705Z,446.30
2018-06-21T23:37:24.909Z,449.07
2018-06-21T23:39:52.107Z,449.57
2018-06-21T23:42:19.312Z,450.57
2018-06-21T23:44:46.596Z,450.97
2018-06-21T23:47:13.880Z,445.37
2018-06-21T23:49:41.085Z,447.00
2018-06-21T23:52:08.273Z,442.10
2018-06-21T23:54:35.476Z,446.80
2018-06-21T23:57:02.707Z,440.93
2018-06-21T23:59:29.904Z,439.90
